sensor_id;sensor_type;location;lat;lon;timestamp;pressure;altitude;pressure_sealevel;temperature;humidity
72525;BME280;60547;48.502;8.996;2022-11-20T00:00:42;97441.50;;;5.07;87.01
72525;BME280;60547;48.502;8.996;2022-11-20T00:03:08;97451.34;;;5.08;86.71
72525;BME280;60547;48.502;8.996;2022-11-20T00:05:35;97450.59;;;5.04;86.95
72525;BME280;60547;48.502;8.996;2022-11-20T00:08:01;97440.44;;;4.97;87.51
72525;BME280;60547;48.502;8.996;2022-11-20T00:10:27;97448.66;;;5.01;87.74
72525;BME280;60547;48.502;8.996;2022-11-20T00:12:52;97449.50;;;4.98;87.08
72525;BME280;60547;48.502;8.996;2022-11-20T00:15:17;97454.25;;;4.94;87.82
72525;BME280;60547;48.502;8.996;2022-11-20T00:17:43;97451.13;;;4.92;87.45
72525;BME280;60547;48.502;8.996;2022-11-20T00:20:09;97452.69;;;4.93;87.58
72525;BME280;60547;48.502;8.996;2022-11-20T00:22:34;97444.88;;;4.88;88.04
72525;BME280;60547;48.502;8.996;2022-11-20T00:25:00;97444.09;;;4.87;88.27
72525;BME280;60547;48.502;8.996;2022-11-20T00:27:25;97439.41;;;4.84;88.82
72525;BME280;60547;48.502;8.996;2022-11-20T00:29:51;97429.13;;;4.88;87.90
72525;BME280;60547;48.502;8.996;2022-11-20T00:32:16;97440.91;;;4.89;88.34
72525;BME280;60547;48.502;8.996;2022-11-20T00:34:42;97426.81;;;4.83;87.77
72525;BME280;60547;48.502;8.996;2022-11-20T00:37:07;97434.66;;;4.84;87.85
72525;BME280;60547;48.502;8.996;2022-11-20T00:39:32;97445.28;;;4.86;88.00
72525;BME280;60547;48.502;8.996;2022-11-20T00:41:58;97448.06;;;4.82;88.67
72525;BME280;60547;48.502;8.996;2022-11-20T00:44:23;97443.38;;;4.79;87.94
72525;BME280;60547;48.502;8.996;2022-11-20T00:46:49;97448.88;;;4.79;88.44
72525;BME280;60547;48.502;8.996;2022-11-20T00:49:14;97443.75;;;4.81;88.55
72525;BME280;60547;48.502;8.996;2022-11-20T00:51:39;97449.56;;;4.91;88.11
72525;BME280;60547;48.502;8.996;2022-11-20T00:54:05;97446.84;;;4.87;88.41
72525;BME280;60547;48.502;8.996;2022-11-20T00:56:30;97455.91;;;4.88;88.01
72525;BME280;60547;48.502;8.996;2022-11-20T00:58:59;97458.66;;;4.88;88.05
72525;BME280;60547;48.502;8.996;2022-11-20T01:01:26;97459.06;;;4.86;88.15
72525;BME280;60547;48.502;8.996;2022-11-20T01:03:54;97465.03;;;4.81;87.76
72525;BME280;60547;48.502;8.996;2022-11-20T01:06:21;97476.00;;;4.84;88.31
72525;BME280;60547;48.502;8.996;2022-11-20T01:08:47;97468.63;;;4.74;88.52
72525;BME280;60547;48.502;8.996;2022-11-20T01:11:18;97465.88;;;4.74;88.36
72525;BME280;60547;48.502;8.996;2022-11-20T01:13:45;97475.78;;;4.68;88.64
72525;BME280;60547;48.502;8.996;2022-11-20T01:16:16;97473.44;;;4.67;88.58
72525;BME280;60547;48.502;8.996;2022-11-20T01:18:44;97471.03;;;4.69;88.62
72525;BME280;60547;48.502;8.996;2022-11-20T01:21:35;97475.84;;;4.61;88.65
72525;BME280;60547;48.502;8.996;2022-11-20T01:24:01;97472.72;;;4.59;88.64
72525;BME280;60547;48.502;8.996;2022-11-20T01:26:30;97478.59;;;4.61;88.69
72525;BME280;60547;48.502;8.996;2022-11-20T01:28:57;97472.72;;;4.59;88.56
72525;BME280;60547;48.502;8.996;2022-11-20T01:31:26;97481.34;;;4.61;88.37
72525;BME280;60547;48.502;8.996;2022-11-20T01:33:54;97482.53;;;4.60;89.07
72525;BME280;60547;48.502;8.996;2022-11-20T01:36:22;97490.03;;;4.60;88.69
72525;BME280;60547;48.502;8.996;2022-11-20T01:38:51;97485.34;;;4.53;88.88
72525;BME280;60547;48.502;8.996;2022-11-20T01:41:18;97489.31;;;4.52;88.30
72525;BME280;60547;48.502;8.996;2022-11-20T01:44:03;97497.53;;;4.56;88.58
72525;BME280;60547;48.502;8.996;2022-11-20T01:46:29;97481.03;;;4.52;88.55
72525;BME280;60547;48.502;8.996;2022-11-20T01:49:04;97487.28;;;4.56;88.50
72525;BME280;60547;48.502;8.996;2022-11-20T01:51:43;97486.09;;;4.57;87.89
72525;BME280;60547;48.502;8.996;2022-11-20T01:54:14;97482.28;;;4.44;87.75
72525;BME280;60547;48.502;8.996;2022-11-20T01:56:43;97481.47;;;4.47;88.52
72525;BME280;60547;48.502;8.996;2022-11-20T01:59:10;97475.59;;;4.45;88.15
72525;BME280;60547;48.502;8.996;2022-11-20T02:01:38;97480.31;;;4.44;87.86
72525;BME280;60547;48.502;8.996;2022-11-20T02:04:04;97491.31;;;4.48;88.29
72525;BME280;60547;48.502;8.996;2022-11-20T02:06:35;97484.63;;;4.45;88.00
72525;BME280;60547;48.502;8.996;2022-11-20T02:09:04;97485.75;;;4.51;88.13
72525;BME280;60547;48.502;8.996;2022-11-20T02:11:30;97490.44;;;4.58;88.42
72525;BME280;60547;48.502;8.996;2022-11-20T02:13:56;97480.59;;;4.57;88.36
72525;BME280;60547;48.502;8.996;2022-11-20T02:16:25;97485.28;;;4.60;88.43
72525;BME280;60547;48.502;8.996;2022-11-20T02:18:52;97479.69;;;4.71;87.92
72525;BME280;60547;48.502;8.996;2022-11-20T02:26:29;97482.84;;;4.69;87.59
72525;BME280;60547;48.502;8.996;2022-11-20T02:28:55;97479.66;;;4.74;86.99
72525;BME280;60547;48.502;8.996;2022-11-20T02:31:21;97489.09;;;4.73;86.73
72525;BME280;60547;48.502;8.996;2022-11-20T02:33:46;97475.75;;;4.72;87.03
72525;BME280;60547;48.502;8.996;2022-11-20T02:36:14;97477.31;;;4.73;86.51
72525;BME280;60547;48.502;8.996;2022-11-20T02:38:41;97475.78;;;4.68;87.09
72525;BME280;60547;48.502;8.996;2022-11-20T02:41:07;97468.66;;;4.71;87.22
72525;BME280;60547;48.502;8.996;2022-11-20T02:43:32;97475.41;;;4.66;87.14
72525;BME280;60547;48.502;8.996;2022-11-20T02:45:58;97473.44;;;4.67;86.54
72525;BME280;60547;48.502;8.996;2022-11-20T02:48:23;97474.69;;;4.59;87.08
72525;BME280;60547;48.502;8.996;2022-11-20T02:50:48;97483.75;;;4.56;86.82
72525;BME280;60547;48.502;8.996;2022-11-20T02:53:14;97467.25;;;4.52;87.36
72525;BME280;60547;48.502;8.996;2022-11-20T02:55:39;97465.31;;;4.49;86.98
72525;BME280;60547;48.502;8.996;2022-11-20T02:58:05;97460.59;;;4.49;87.06
72525;BME280;60547;48.502;8.996;2022-11-20T03:00:30;97466.50;;;4.48;87.20
72525;BME280;60547;48.502;8.996;2022-11-20T03:02:57;97468.06;;;4.49;86.90
72525;BME280;60547;48.502;8.996;2022-11-20T03:05:22;97475.19;;;4.46;86.48
72525;BME280;60547;48.502;8.996;2022-11-20T03:07:48;97482.19;;;4.54;86.43
72525;BME280;60547;48.502;8.996;2022-11-20T03:10:13;97472.81;;;4.48;86.61
72525;BME280;60547;48.502;8.996;2022-11-20T03:12:38;97479.53;;;4.44;86.29
72525;BME280;60547;48.502;8.996;2022-11-20T03:15:04;97477.53;;;4.48;86.57
72525;BME280;60547;48.502;8.996;2022-11-20T03:17:30;97467.66;;;4.50;86.78
72525;BME280;60547;48.502;8.996;2022-11-20T03:19:56;97471.13;;;4.58;86.72
72525;BME280;60547;48.502;8.996;2022-11-20T03:22:21;97458.94;;;4.59;86.25
72525;BME280;60547;48.502;8.996;2022-11-20T03:24:47;97460.06;;;4.65;86.40
72525;BME280;60547;48.502;8.996;2022-11-20T03:27:12;97467.84;;;4.74;86.11
72525;BME280;60547;48.502;8.996;2022-11-20T03:29:37;97454.59;;;4.62;86.31
72525;BME280;60547;48.502;8.996;2022-11-20T03:32:03;97454.16;;;4.63;86.14
72525;BME280;60547;48.502;8.996;2022-11-20T03:34:28;97455.31;;;4.66;86.06
72525;BME280;60547;48.502;8.996;2022-11-20T03:36:54;97454.53;;;4.65;86.28
72525;BME280;60547;48.502;8.996;2022-11-20T03:39:19;97455.31;;;4.66;85.49
72525;BME280;60547;48.502;8.996;2022-11-20T03:41:44;97470.31;;;4.61;85.93
72525;BME280;60547;48.502;8.996;2022-11-20T03:44:11;97465.22;;;4.60;86.12
72525;BME280;60547;48.502;8.996;2022-11-20T03:46:37;97463.69;;;4.55;86.50
72525;BME280;60547;48.502;8.996;2022-11-20T03:49:03;97466.44;;;4.55;85.80
72525;BME280;60547;48.502;8.996;2022-11-20T03:51:31;97474.66;;;4.62;85.38
72525;BME280;60547;48.502;8.996;2022-11-20T03:53:59;97479.03;;;4.56;85.39
72525;BME280;60547;48.502;8.996;2022-11-20T03:56:27;97471.13;;;4.58;85.95
72525;BME280;60547;48.502;8.996;2022-11-20T03:58:54;97473.06;;;4.65;85.26
72525;BME280;60547;48.502;8.996;2022-11-20T04:01:29;97481.66;;;4.70;85.04
72525;BME280;60547;48.502;8.996;2022-11-20T04:03:56;97480.03;;;4.76;85.07
72525;BME280;60547;48.502;8.996;2022-11-20T04:06:30;97485.13;;;4.78;85.39
72525;BME280;60547;48.502;8.996;2022-11-20T04:08:58;97485.91;;;4.78;85.02
72525;BME280;60547;48.502;8.996;2022-11-20T04:11:29;97478.88;;;4.74;84.65
72525;BME280;60547;48.502;8.996;2022-11-20T04:13:57;97487.47;;;4.79;84.35
72525;BME280;60547;48.502;8.996;2022-11-20T04:16:25;97482.72;;;4.83;84.51
72525;BME280;60547;48.502;8.996;2022-11-20T04:18:52;97476.78;;;4.85;84.08
72525;BME280;60547;48.502;8.996;2022-11-20T04:21:18;97478.75;;;4.84;84.30
72525;BME280;60547;48.502;8.996;2022-11-20T04:23:43;97477.13;;;4.91;83.93
72525;BME280;60547;48.502;8.996;2022-11-20T04:26:10;97483.44;;;4.91;83.90
72525;BME280;60547;48.502;8.996;2022-11-20T04:28:37;97476.69;;;4.96;83.74
72525;BME280;60547;48.502;8.996;2022-11-20T04:31:07;97482.56;;;4.98;83.75
72525;BME280;60547;48.502;8.996;2022-11-20T04:33:34;97475.13;;;4.95;83.86
72525;BME280;60547;48.502;8.996;2022-11-20T04:36:15;97481.06;;;4.90;83.44
72525;BME280;60547;48.502;8.996;2022-11-20T04:38:41;97478.69;;;4.92;84.29
72525;BME280;60547;48.502;8.996;2022-11-20T04:41:16;97469.22;;;4.93;84.04
72525;BME280;60547;48.502;8.996;2022-11-20T04:43:46;97471.63;;;4.91;84.12
72525;BME280;60547;48.502;8.996;2022-11-20T04:46:13;97463.72;;;4.93;84.12
72525;BME280;60547;48.502;8.996;2022-11-20T04:48:38;97464.47;;;4.97;83.72
72525;BME280;60547;48.502;8.996;2022-11-20T04:51:04;97464.47;;;4.97;83.78
72525;BME280;60547;48.502;8.996;2022-11-20T04:53:29;97470.72;;;5.01;83.82
72525;BME280;60547;48.502;8.996;2022-11-20T04:56:21;97475.50;;;4.97;83.39
72525;BME280;60547;48.502;8.996;2022-11-20T04:58:47;97475.50;;;4.97;83.27
72525;BME280;60547;48.502;8.996;2022-11-20T05:01:18;97473.16;;;4.95;82.85
72525;BME280;60547;48.502;8.996;2022-11-20T05:03:44;97468.44;;;4.92;83.46
72525;BME280;60547;48.502;8.996;2022-11-20T05:06:15;97474.75;;;4.93;83.51
72525;BME280;60547;48.502;8.996;2022-11-20T05:08:40;97470.44;;;4.92;83.50
72525;BME280;60547;48.502;8.996;2022-11-20T05:11:10;97470.06;;;4.90;83.79
72525;BME280;60547;48.502;8.996;2022-11-20T05:13:36;97469.69;;;4.88;83.72
72525;BME280;60547;48.502;8.996;2022-11-20T05:16:07;97459.06;;;4.86;83.79
72525;BME280;60547;48.502;8.996;2022-11-20T05:18:34;97453.22;;;4.80;83.53
72525;BME280;60547;48.502;8.996;2022-11-20T05:21:00;97460.22;;;4.89;83.97
72525;BME280;60547;48.502;8.996;2022-11-20T05:23:27;97465.34;;;4.86;83.52
72525;BME280;60547;48.502;8.996;2022-11-20T05:25:56;97463.00;;;4.85;83.83
72525;BME280;60547;48.502;8.996;2022-11-20T05:28:22;97468.16;;;4.83;83.48
72525;BME280;60547;48.502;8.996;2022-11-20T05:30:48;97461.47;;;4.80;83.95
72525;BME280;60547;48.502;8.996;2022-11-20T05:33:14;97452.06;;;4.78;84.25
72525;BME280;60547;48.502;8.996;2022-11-20T05:35:40;97460.72;;;4.76;84.16
72525;BME280;60547;48.502;8.996;2022-11-20T05:38:06;97463.09;;;4.78;83.98
72525;BME280;60547;48.502;8.996;2022-11-20T05:40:31;97460.38;;;4.74;83.84
72525;BME280;60547;48.502;8.996;2022-11-20T05:42:57;97467.44;;;4.75;83.62
72525;BME280;60547;48.502;8.996;2022-11-20T05:45:22;97461.19;;;4.71;83.92
72525;BME280;60547;48.502;8.996;2022-11-20T05:47:48;97468.59;;;4.78;83.62
72525;BME280;60547;48.502;8.996;2022-11-20T05:50:14;97452.91;;;4.71;83.84
72525;BME280;60547;48.502;8.996;2022-11-20T05:52:40;97463.94;;;4.71;83.47
72525;BME280;60547;48.502;8.996;2022-11-20T05:55:06;97455.22;;;4.76;83.58
72525;BME280;60547;48.502;8.996;2022-11-20T05:57:31;97450.97;;;4.68;82.86
72525;BME280;60547;48.502;8.996;2022-11-20T05:59:57;97456.03;;;4.73;83.02
72525;BME280;60547;48.502;8.996;2022-11-20T06:02:22;97452.53;;;4.69;82.97
72525;BME280;60547;48.502;8.996;2022-11-20T06:04:50;97461.19;;;4.71;82.84
72525;BME280;60547;48.502;8.996;2022-11-20T06:07:16;97462.44;;;4.63;82.65
72525;BME280;60547;48.502;8.996;2022-11-20T06:09:42;97461.69;;;4.59;83.59
72525;BME280;60547;48.502;8.996;2022-11-20T06:12:07;97465.19;;;4.63;83.28
72525;BME280;60547;48.502;8.996;2022-11-20T06:14:33;97466.31;;;4.69;83.17
72525;BME280;60547;48.502;8.996;2022-11-20T06:16:58;97463.94;;;4.71;82.94
72525;BME280;60547;48.502;8.996;2022-11-20T06:19:24;97459.69;;;4.63;82.93
72525;BME280;60547;48.502;8.996;2022-11-20T06:21:49;97458.50;;;4.64;83.14
72525;BME280;60547;48.502;8.996;2022-11-20T06:24:15;97451.34;;;4.70;83.34
72525;BME280;60547;48.502;8.996;2022-11-20T06:26:41;97443.59;;;4.58;83.46
72525;BME280;60547;48.502;8.996;2022-11-20T06:29:07;97451.47;;;4.56;83.26
72525;BME280;60547;48.502;8.996;2022-11-20T06:31:32;97458.88;;;4.66;83.71
72525;BME280;60547;48.502;8.996;2022-11-20T06:34:00;97450.72;;;4.52;83.52
72525;BME280;60547;48.502;8.996;2022-11-20T06:36:26;97437.47;;;4.40;83.68
72525;BME280;60547;48.502;8.996;2022-11-20T06:38:52;97455.50;;;4.48;83.52
72525;BME280;60547;48.502;8.996;2022-11-20T06:41:19;97452.28;;;4.53;83.78
72525;BME280;60547;48.502;8.996;2022-11-20T06:43:45;97460.09;;;4.62;83.94
72525;BME280;60547;48.502;8.996;2022-11-20T06:46:12;97459.31;;;4.61;83.75
72525;BME280;60547;48.502;8.996;2022-11-20T06:48:38;97460.84;;;4.66;83.65
72525;BME280;60547;48.502;8.996;2022-11-20T06:51:05;97466.75;;;4.64;83.27
72525;BME280;60547;48.502;8.996;2022-11-20T06:53:31;97457.38;;;4.58;83.73
72525;BME280;60547;48.502;8.996;2022-11-20T06:55:57;97461.69;;;4.59;83.18
72525;BME280;60547;48.502;8.996;2022-11-20T06:58:30;97467.84;;;4.74;83.07
72525;BME280;60547;48.502;8.996;2022-11-20T07:00:59;97466.69;;;4.71;83.01
72525;BME280;60547;48.502;8.996;2022-11-20T07:03:24;97463.28;;;4.57;82.93
72525;BME280;60547;48.502;8.996;2022-11-20T07:05:50;97471.88;;;4.62;83.23
72525;BME280;60547;48.502;8.996;2022-11-20T07:08:15;97467.16;;;4.63;83.78
72525;BME280;60547;48.502;8.996;2022-11-20T07:10:40;97462.44;;;4.63;83.28
72525;BME280;60547;48.502;8.996;2022-11-20T07:13:06;97468.69;;;4.67;83.43
72525;BME280;60547;48.502;8.996;2022-11-20T07:15:32;97471.81;;;4.69;83.59
72525;BME280;60547;48.502;8.996;2022-11-20T07:18:01;97471.81;;;4.69;82.96
72525;BME280;60547;48.502;8.996;2022-11-20T07:20:27;97477.69;;;4.75;83.65
72525;BME280;60547;48.502;8.996;2022-11-20T07:22:53;97481.97;;;4.79;83.08
72525;BME280;60547;48.502;8.996;2022-11-20T07:25:19;97480.38;;;4.82;83.27
72525;BME280;60547;48.502;8.996;2022-11-20T07:27:45;97480.38;;;4.82;83.17
72525;BME280;60547;48.502;8.996;2022-11-20T07:30:11;97485.41;;;4.91;83.07
72525;BME280;60547;48.502;8.996;2022-11-20T07:32:36;97481.91;;;4.86;82.55
72525;BME280;60547;48.502;8.996;2022-11-20T07:35:02;97486.63;;;4.86;83.02
72525;BME280;60547;48.502;8.996;2022-11-20T07:37:27;97480.34;;;4.85;82.63
72525;BME280;60547;48.502;8.996;2022-11-20T07:39:53;97489.72;;;4.92;82.95
72525;BME280;60547;48.502;8.996;2022-11-20T07:42:18;97488.53;;;4.93;82.22
72525;BME280;60547;48.502;8.996;2022-11-20T07:44:43;97481.44;;;4.92;82.08
72525;BME280;60547;48.502;8.996;2022-11-20T07:47:09;97487.75;;;4.92;82.81
72525;BME280;60547;48.502;8.996;2022-11-20T07:49:34;97492.78;;;5.01;82.99
72525;BME280;60547;48.502;8.996;2022-11-20T07:52:00;97492.69;;;5.08;82.98
72525;BME280;60547;48.502;8.996;2022-11-20T07:54:25;97492.66;;;5.11;82.40
72525;BME280;60547;48.502;8.996;2022-11-20T07:56:51;97498.56;;;5.13;82.70
72525;BME280;60547;48.502;8.996;2022-11-20T07:59:16;97491.50;;;5.09;83.15
72525;BME280;60547;48.502;8.996;2022-11-20T08:01:42;97490.69;;;5.12;83.24
72525;BME280;60547;48.502;8.996;2022-11-20T08:04:08;97498.94;;;5.15;82.70
72525;BME280;60547;48.502;8.996;2022-11-20T08:06:35;97494.84;;;5.27;82.50
72525;BME280;60547;48.502;8.996;2022-11-20T08:09:00;97495.59;;;5.31;81.71
72525;BME280;60547;48.502;8.996;2022-11-20T08:11:25;97503.75;;;5.42;82.27
72525;BME280;60547;48.502;8.996;2022-11-20T08:14:09;97506.13;;;5.40;82.58
72525;BME280;60547;48.502;8.996;2022-11-20T08:16:46;97502.97;;;5.41;82.39
72525;BME280;60547;48.502;8.996;2022-11-20T08:19:13;97502.56;;;5.43;81.82
72525;BME280;60547;48.502;8.996;2022-11-20T08:21:39;97503.78;;;5.38;82.23
72525;BME280;60547;48.502;8.996;2022-11-20T08:24:05;97510.41;;;5.44;82.63
72525;BME280;60547;48.502;8.996;2022-11-20T08:26:31;97513.56;;;5.46;82.08
72525;BME280;60547;48.502;8.996;2022-11-20T08:28:57;97512.00;;;5.45;82.48
72525;BME280;60547;48.502;8.996;2022-11-20T08:31:24;97511.03;;;5.59;82.51
72525;BME280;60547;48.502;8.996;2022-11-20T08:33:50;97516.59;;;5.56;82.45
72525;BME280;60547;48.502;8.996;2022-11-20T08:36:16;97522.16;;;5.52;82.36
72525;BME280;60547;48.502;8.996;2022-11-20T08:38:47;97513.38;;;5.61;82.86
72525;BME280;60547;48.502;8.996;2022-11-20T08:41:13;97525.16;;;5.65;83.11
72525;BME280;60547;48.502;8.996;2022-11-20T08:44:18;97528.56;;;5.76;82.79
72525;BME280;60547;48.502;8.996;2022-11-20T08:46:43;97523.00;;;5.79;82.38
72525;BME280;60547;48.502;8.996;2022-11-20T08:49:12;97527.38;;;5.77;82.47
72525;BME280;60547;48.502;8.996;2022-11-20T08:51:38;97533.59;;;5.84;82.82
72525;BME280;60547;48.502;8.996;2022-11-20T08:54:04;97534.41;;;5.81;82.32
72525;BME280;60547;48.502;8.996;2022-11-20T08:56:30;97532.75;;;5.88;82.10
72525;BME280;60547;48.502;8.996;2022-11-20T08:58:55;97527.50;;;5.66;81.93
72525;BME280;60547;48.502;8.996;2022-11-20T09:01:22;97532.97;;;5.70;81.62
72525;BME280;60547;48.502;8.996;2022-11-20T09:03:49;97530.44;;;5.82;81.37
72525;BME280;60547;48.502;8.996;2022-11-20T09:06:15;97533.16;;;5.86;81.50
72525;BME280;60547;48.502;8.996;2022-11-20T09:08:40;97537.91;;;5.86;81.25
72525;BME280;60547;48.502;8.996;2022-11-20T09:11:06;97531.59;;;5.85;81.66
72525;BME280;60547;48.502;8.996;2022-11-20T09:13:33;97535.13;;;5.89;82.12
72525;BME280;60547;48.502;8.996;2022-11-20T09:16:02;97538.16;;;5.98;81.39
72525;BME280;60547;48.502;8.996;2022-11-20T09:18:28;97533.47;;;5.95;82.22
72525;BME280;60547;48.502;8.996;2022-11-20T09:20:59;97527.22;;;5.91;81.66
72525;BME280;60547;48.502;8.996;2022-11-20T09:23:26;97537.00;;;5.96;81.97
72525;BME280;60547;48.502;8.996;2022-11-20T09:25:51;97535.44;;;5.95;82.57
72525;BME280;60547;48.502;8.996;2022-11-20T09:28:18;97535.03;;;5.96;83.14
72525;BME280;60547;48.502;8.996;2022-11-20T09:30:44;97545.16;;;6.06;83.23
72525;BME280;60547;48.502;8.996;2022-11-20T09:33:10;97546.22;;;6.16;82.78
72525;BME280;60547;48.502;8.996;2022-11-20T09:35:37;97541.94;;;6.11;81.81
72525;BME280;60547;48.502;8.996;2022-11-20T09:38:06;97533.69;;;6.08;82.59
72525;BME280;60547;48.502;8.996;2022-11-20T09:40:32;97551.78;;;6.12;83.36
72525;BME280;60547;48.502;8.996;2022-11-20T09:43:19;97559.59;;;6.18;83.70
72525;BME280;60547;48.502;8.996;2022-11-20T09:46:07;97563.19;;;6.14;84.09
72525;BME280;60547;48.502;8.996;2022-11-20T09:54:40;97569.72;;;6.28;85.23
72525;BME280;60547;48.502;8.996;2022-11-20T09:57:14;97570.09;;;6.30;85.41
72525;BME280;60547;48.502;8.996;2022-11-20T09:59:50;97564.56;;;6.30;85.75
72525;BME280;60547;48.502;8.996;2022-11-20T10:04:49;97553.56;;;6.26;85.71
72525;BME280;60547;48.502;8.996;2022-11-20T10:07:29;97555.63;;;6.19;85.80
72525;BME280;60547;48.502;8.996;2022-11-20T10:09:56;97552.72;;;6.29;85.97
72525;BME280;60547;48.502;8.996;2022-11-20T10:22:59;97563.16;;;6.45;85.39
72525;BME280;60547;48.502;8.996;2022-11-20T10:28:28;97556.91;;;6.41;85.49
72525;BME280;60547;48.502;8.996;2022-11-20T10:31:00;97556.53;;;6.39;85.78
72525;BME280;60547;48.502;8.996;2022-11-20T10:33:27;97557.22;;;6.46;85.24
72525;BME280;60547;48.502;8.996;2022-11-20T10:36:17;97557.16;;;6.50;84.70
72525;BME280;60547;48.502;8.996;2022-11-20T10:41:26;97558.56;;;6.62;85.91
72525;BME280;60547;48.502;8.996;2022-11-20T10:46:44;97548.69;;;6.61;85.39
72525;BME280;60547;48.502;8.996;2022-11-20T10:49:13;97550.22;;;6.65;85.57
72525;BME280;60547;48.502;8.996;2022-11-20T10:56:47;97549.84;;;6.63;85.16
72525;BME280;60547;48.502;8.996;2022-11-20T10:59:35;97555.63;;;6.72;85.24
72525;BME280;60547;48.502;8.996;2022-11-20T11:02:52;97536.50;;;6.58;85.80
72525;BME280;60547;48.502;8.996;2022-11-20T11:07:58;97537.84;;;6.97;84.25
72525;BME280;60547;48.502;8.996;2022-11-20T11:10:32;97545.28;;;7.00;83.80
72525;BME280;60547;48.502;8.996;2022-11-20T11:13:01;97536.78;;;7.34;83.74
72525;BME280;60547;48.502;8.996;2022-11-20T11:17:54;97514.00;;;7.46;80.65
72525;BME280;60547;48.502;8.996;2022-11-20T11:20:25;97516.63;;;7.73;79.87
72525;BME280;60547;48.502;8.996;2022-11-20T11:22:56;97513.00;;;7.76;77.64
72525;BME280;60547;48.502;8.996;2022-11-20T11:25:36;97504.25;;;7.97;75.74
72525;BME280;60547;48.502;8.996;2022-11-20T11:30:57;97492.19;;;7.88;76.07
72525;BME280;60547;48.502;8.996;2022-11-20T11:33:28;97497.22;;;7.93;75.13
72525;BME280;60547;48.502;8.996;2022-11-20T11:36:14;97499.97;;;7.93;76.06
72525;BME280;60547;48.502;8.996;2022-11-20T11:38:42;97501.78;;;7.83;76.49
72525;BME280;60547;48.502;8.996;2022-11-20T11:41:20;97487.72;;;7.74;77.42
72525;BME280;60547;48.502;8.996;2022-11-20T11:43:57;97487.06;;;7.86;76.76
72525;BME280;60547;48.502;8.996;2022-11-20T11:46:51;97483.84;;;7.52;75.62
72525;BME280;60547;48.502;8.996;2022-11-20T11:49:19;97483.63;;;7.42;77.00
72525;BME280;60547;48.502;8.996;2022-11-20T11:51:59;97475.31;;;7.42;77.49
72525;BME280;60547;48.502;8.996;2022-11-20T11:57:47;97483.13;;;7.48;77.04
72525;BME280;60547;48.502;8.996;2022-11-20T12:00:20;97468.66;;;7.40;78.70
72525;BME280;60547;48.502;8.996;2022-11-20T12:02:54;97461.19;;;7.57;77.83
72525;BME280;60547;48.502;8.996;2022-11-20T12:05:47;97474.22;;;7.76;77.33
72525;BME280;60547;48.502;8.996;2022-11-20T12:08:23;97473.81;;;7.58;77.57
72525;BME280;60547;48.502;8.996;2022-11-20T12:15:59;97463.53;;;7.38;76.51
72525;BME280;60547;48.502;8.996;2022-11-20T12:18:24;97465.75;;;7.47;76.47
72525;BME280;60547;48.502;8.996;2022-11-20T12:29:50;97471.13;;;7.54;72.92
72525;BME280;60547;48.502;8.996;2022-11-20T12:35:44;97456.28;;;7.64;74.06
72525;BME280;60547;48.502;8.996;2022-11-20T12:53:33;97445.72;;;7.95;72.31
72525;BME280;60547;48.502;8.996;2022-11-20T12:56:26;97446.69;;;7.69;73.59
72525;BME280;60547;48.502;8.996;2022-11-20T13:07:01;97447.59;;;7.82;73.09
72525;BME280;60547;48.502;8.996;2022-11-20T13:09:28;97443.59;;;7.83;73.47
72525;BME280;60547;48.502;8.996;2022-11-20T13:12:06;97443.41;;;7.74;73.20
72525;BME280;60547;48.502;8.996;2022-11-20T13:17:25;97442.16;;;7.59;73.21
72525;BME280;60547;48.502;8.996;2022-11-20T13:19:56;97451.47;;;7.49;70.82
72525;BME280;60547;48.502;8.996;2022-11-20T13:22:27;97440.91;;;7.43;71.25
72525;BME280;60547;48.502;8.996;2022-11-20T13:24:53;97448.84;;;7.41;71.32
72525;BME280;60547;48.502;8.996;2022-11-20T13:27:21;97449.84;;;7.31;71.33
72525;BME280;60547;48.502;8.996;2022-11-20T13:30:21;97433.47;;;7.21;71.93
72525;BME280;60547;48.502;8.996;2022-11-20T13:33:50;97428.19;;;7.46;70.60
72525;BME280;60547;48.502;8.996;2022-11-20T13:36:02;97423.38;;;7.50;69.95
72525;BME280;60547;48.502;8.996;2022-11-20T13:38:39;97428.63;;;7.44;70.65
72525;BME280;60547;48.502;8.996;2022-11-20T13:41:07;97419.97;;;7.42;71.05
72525;BME280;60547;48.502;8.996;2022-11-20T13:43:51;97421.53;;;7.43;71.54
72525;BME280;60547;48.502;8.996;2022-11-20T13:46:17;97414.78;;;7.44;71.92
72525;BME280;60547;48.502;8.996;2022-11-20T13:48:50;97398.03;;;7.52;72.70
72525;BME280;60547;48.502;8.996;2022-11-20T13:57:05;97402.69;;;7.55;73.30
72525;BME280;60547;48.502;8.996;2022-11-20T14:02:01;97394.19;;;7.45;73.62
72525;BME280;60547;48.502;8.996;2022-11-20T14:04:29;97385.97;;;7.42;73.18
72525;BME280;60547;48.502;8.996;2022-11-20T14:06:55;97386.41;;;7.40;74.14
72525;BME280;60547;48.502;8.996;2022-11-20T14:09:30;97384.13;;;7.35;74.30
72525;BME280;60547;48.502;8.996;2022-11-20T14:11:55;97385.00;;;7.32;75.11
72525;BME280;60547;48.502;8.996;2022-11-20T14:14:32;97398.03;;;7.32;75.83
72525;BME280;60547;48.502;8.996;2022-11-20T14:17:34;97390.03;;;7.37;75.15
72525;BME280;60547;48.502;8.996;2022-11-20T14:20:03;97395.91;;;7.39;75.08
72525;BME280;60547;48.502;8.996;2022-11-20T14:22:29;97386.41;;;7.40;74.67
72525;BME280;60547;48.502;8.996;2022-11-20T14:27:33;97387.31;;;7.34;74.93
72525;BME280;60547;48.502;8.996;2022-11-20T14:30:00;97390.53;;;7.32;75.02
72525;BME280;60547;48.502;8.996;2022-11-20T14:32:28;97388.19;;;7.31;74.70
72525;BME280;60547;48.502;8.996;2022-11-20T14:34:57;97384.44;;;7.21;74.66
72525;BME280;60547;48.502;8.996;2022-11-20T14:37:28;97377.75;;;7.19;74.44
72525;BME280;60547;48.502;8.996;2022-11-20T14:39:58;97373.16;;;7.12;74.36
72525;BME280;60547;48.502;8.996;2022-11-20T14:42:28;97371.53;;;7.15;74.75
72525;BME280;60547;48.502;8.996;2022-11-20T14:45:00;97363.22;;;7.15;74.47
72525;BME280;60547;48.502;8.996;2022-11-20T14:47:30;97364.00;;;7.15;74.66
72525;BME280;60547;48.502;8.996;2022-11-20T14:49:57;97358.53;;;7.11;75.01
72525;BME280;60547;48.502;8.996;2022-11-20T14:52:26;97350.66;;;7.10;75.49
72525;BME280;60547;48.502;8.996;2022-11-20T14:54:54;97360.09;;;7.12;75.10
72525;BME280;60547;48.502;8.996;2022-11-20T14:57:30;97355.84;;;7.08;75.27
72525;BME280;60547;48.502;8.996;2022-11-20T15:02:47;97358.69;;;7.04;76.23
72525;BME280;60547;48.502;8.996;2022-11-20T15:05:14;97348.06;;;7.03;76.14